Monte Vista, CO

8:18 PM MST on January 16, 2017 (GMT -0700)
Southwest of Golf Course | | Change Station

Elev 7680 ft 37.58 °N, 106.16 °W | Updated 1 minute ago

Snow
Snow
28.4 °F
Feels Like 25 °F
N
3.5
Wind Variable Wind from SSE
Gusts 3.7 mph

Today
High -- | Low -- °F
--% Chance of Precip.
Yesterday
High -- | Low -- °F
Precip. -- in
Pressure 30.09 in
Visibility 5.0 miles
Clouds Mostly Cloudy 3700 ft
Overcast 11000 ft
Windchill 25 °F
Dew Point 27 °F
Humidity 94%
Rainfall 0.22 in
Snow Depth Not available.
7:17 AM 5:11 PM
Waning Gibbous, 76% visible
METAR KALS 170252Z AUTO 10004KT 5SM -SN BR BKN037 OVC110 M02/M03 A3006 RMK AO2 SNB48 SLP188 P0000 60003 T10221033 51009
Pressure 30.09 in
Visibility 5.0 miles
Clouds Mostly Cloudy 3700 ft
Overcast 11000 ft
Windchill 25 °F
Dew Point 27 °F
Humidity 94%
Rainfall 0.22 in
Snow Depth Not available.
7:17 AM 5:11 PM
Waning Gibbous, 76% visible
METAR KALS 170252Z AUTO 10004KT 5SM -SN BR BKN037 OVC110 M02/M03 A3006 RMK AO2 SNB48 SLP188 P0000 60003 T10221033 51009

Get Your Daily Forecast Email!

Thanks for signing up!

Be on the lookout for a verification email in your inbox.

You'll start receiving the daily forecast at 8 AM.

×

10-Day Weather Forecast

Almanac

Astronomy

Jan. 16, 2017 Rise Set
Actual Time
Civil Twilight
Nautical Twilight
Astronomical Twilight
Moon
Length of Visible Light
Length of Day
Tomorrow will be .
, % of the Moon is Illuminated

Today's Extremes

State Highs State Lows

Community

WunderPhotos

Upload Photos

1,962,540 photos uploaded!

WunderBlog® & News

Nearby

Air Quality

  Air Quality AQ Index Pollutant
Not available.

Snow Depth

Station Depth Elevation

Earthquake Activity

City Distance Mag. Time & Date
Minimum magnitude displayed is 2.5.

Coastal Water Temperatures

Place Temperature

Stations

Nearby Weather Stations

Station Location Temp. Windchill Dew Point Humidity Wind Precip. Elev Updated Type
                   

Watches & Warnings

There are currently no watches in effect.